createdAt,value
2019-05-25T00:01:25.363Z,18.14
2019-05-25T00:03:54.403Z,18.07
2019-05-25T00:06:23.450Z,18.04
2019-05-25T00:08:52.430Z,17.96
2019-05-25T00:11:21.337Z,18.01
2019-05-25T00:13:50.171Z,17.94
2019-05-25T00:16:19.111Z,17.88
2019-05-25T00:18:48.076Z,17.91
2019-05-25T00:21:17.046Z,17.97
2019-05-25T00:23:46.188Z,17.86
2019-05-25T00:26:15.207Z,17.75
2019-05-25T00:28:46.871Z,17.59
2019-05-25T00:31:15.983Z,17.59
2019-05-25T00:33:44.936Z,17.60
2019-05-25T00:36:13.768Z,17.52
2019-05-25T00:38:42.860Z,17.45
2019-05-25T00:41:11.745Z,17.31
2019-05-25T00:43:40.778Z,17.34
2019-05-25T00:46:09.764Z,17.30
2019-05-25T00:48:38.642Z,17.28
2019-05-25T00:51:07.812Z,17.17
2019-05-25T00:53:36.602Z,17.13
2019-05-25T00:56:05.547Z,17.28
2019-05-25T00:58:34.543Z,17.00
2019-05-25T01:01:03.659Z,16.88
2019-05-25T01:03:32.563Z,16.78
2019-05-25T01:06:01.598Z,16.80
2019-05-25T01:08:30.473Z,16.79
2019-05-25T01:10:59.881Z,16.80
2019-05-25T01:13:28.830Z,16.79
2019-05-25T01:15:57.642Z,16.78
2019-05-25T01:18:26.534Z,16.76
2019-05-25T01:20:55.518Z,16.70
2019-05-25T01:23:24.489Z,16.81
2019-05-25T01:25:53.449Z,16.77
2019-05-25T01:28:22.447Z,16.77
2019-05-25T01:30:51.387Z,16.74
2019-05-25T01:33:20.367Z,16.68
2019-05-25T01:35:49.343Z,16.61
2019-05-25T01:38:18.226Z,16.60
2019-05-25T01:40:47.213Z,16.50
2019-05-25T01:43:15.990Z,16.54
2019-05-25T01:45:44.874Z,16.74
2019-05-25T01:48:13.879Z,16.77
2019-05-25T01:50:42.867Z,16.78
2019-05-25T01:53:11.905Z,16.64
2019-05-25T01:55:40.893Z,16.53
2019-05-25T01:58:09.799Z,16.40
2019-05-25T02:00:38.737Z,16.30
2019-05-25T02:03:07.682Z,16.29
2019-05-25T02:05:36.603Z,16.23
2019-05-25T02:08:05.542Z,16.15
2019-05-25T02:10:34.419Z,16.09
2019-05-25T02:13:03.323Z,16.04
2019-05-25T02:15:32.329Z,16.05
2019-05-25T02:18:01.276Z,16.04
2019-05-25T02:20:30.282Z,16.02
2019-05-25T02:22:59.091Z,16.07
2019-05-25T02:25:30.548Z,15.95
2019-05-25T02:27:59.432Z,16.00
2019-05-25T02:30:28.514Z,15.99
2019-05-25T02:32:57.809Z,16.01
2019-05-25T02:35:29.157Z,15.99
2019-05-25T02:37:58.524Z,15.92
2019-05-25T02:40:27.682Z,15.88
2019-05-25T02:42:56.698Z,15.80
2019-05-25T02:45:26.089Z,15.96
2019-05-25T02:47:55.042Z,15.88
2019-05-25T02:50:24.446Z,15.97
2019-05-25T02:52:53.465Z,15.98
2019-05-25T02:55:33.665Z,15.92
2019-05-25T02:57:53.063Z,15.93
2019-05-25T03:00:31.222Z,15.88
2019-05-25T03:03:00.444Z,15.95
2019-05-25T03:05:29.416Z,15.89
2019-05-25T03:07:58.851Z,15.76
2019-05-25T03:10:28.065Z,15.64
2019-05-25T03:12:57.012Z,15.66
2019-05-25T03:15:25.897Z,15.62
2019-05-25T03:17:54.824Z,15.61
2019-05-25T03:20:23.783Z,15.51
2019-05-25T03:22:52.683Z,15.56
2019-05-25T03:25:21.718Z,15.60
2019-05-25T03:27:50.707Z,15.57
2019-05-25T03:30:30.758Z,15.40
2019-05-25T03:32:59.701Z,15.40
2019-05-25T03:35:28.709Z,15.35
2019-05-25T03:37:57.695Z,15.36
2019-05-25T03:40:26.705Z,15.44
2019-05-25T03:42:55.699Z,15.49
2019-05-25T03:45:24.669Z,15.61
2019-05-25T03:47:53.770Z,15.68
2019-05-25T03:50:22.724Z,15.68
2019-05-25T03:52:51.762Z,15.63
2019-05-25T03:55:20.670Z,15.62
2019-05-25T03:57:49.638Z,15.51
2019-05-25T04:00:32.208Z,15.56
2019-05-25T04:03:01.115Z,15.58
2019-05-25T04:05:30.140Z,15.63
2019-05-25T04:07:59.093Z,15.61
2019-05-25T04:10:28.078Z,15.60
2019-05-25T04:12:57.121Z,15.54
2019-05-25T04:15:26.240Z,15.56
2019-05-25T04:17:55.605Z,15.62
2019-05-25T04:20:24.463Z,15.56
2019-05-25T04:22:53.489Z,15.59
2019-05-25T04:25:22.442Z,15.58
2019-05-25T04:27:51.328Z,15.54
2019-05-25T04:30:20.681Z,15.53
2019-05-25T04:32:49.526Z,15.29
2019-05-25T04:35:18.698Z,15.40
2019-05-25T04:37:47.571Z,15.47
2019-05-25T04:40:16.612Z,15.41
2019-05-25T04:42:45.635Z,15.46
2019-05-25T04:45:14.700Z,15.39
2019-05-25T04:47:43.631Z,15.44
2019-05-25T04:50:12.758Z,15.51
2019-05-25T04:52:41.888Z,15.47
2019-05-25T04:55:11.140Z,15.39
2019-05-25T04:57:40.250Z,15.30
2019-05-25T05:00:09.698Z,15.33
2019-05-25T05:02:38.608Z,15.42
2019-05-25T05:05:07.866Z,15.49
2019-05-25T05:07:36.875Z,15.55
2019-05-25T05:10:06.694Z,15.49
2019-05-25T05:12:35.575Z,15.64
2019-05-25T05:15:05.818Z,15.88
2019-05-25T05:17:34.904Z,15.89
2019-05-25T05:20:04.440Z,16.22
2019-05-25T05:22:33.325Z,16.00
2019-05-25T05:25:02.375Z,15.80
2019-05-25T05:27:31.251Z,15.83
2019-05-25T05:30:00.161Z,15.74
2019-05-25T05:32:29.270Z,15.97
2019-05-25T05:34:58.985Z,16.14
2019-05-25T05:37:29.354Z,16.26
2019-05-25T05:39:59.325Z,16.47
2019-05-25T05:42:28.773Z,16.47
2019-05-25T05:44:59.763Z,16.60
2019-05-25T05:47:31.284Z,16.70
2019-05-25T05:50:03.506Z,16.70
2019-05-25T05:52:37.089Z,16.46
2019-05-25T05:55:06.217Z,16.29
2019-05-25T05:57:35.122Z,16.41
2019-05-25T06:00:05.431Z,16.16
2019-05-25T06:02:34.391Z,16.21
2019-05-25T06:05:03.967Z,16.17
2019-05-25T06:07:37.722Z,16.11
2019-05-25T06:10:09.060Z,16.07
2019-05-25T06:12:38.033Z,15.84
2019-05-25T06:15:07.857Z,15.87
2019-05-25T06:17:36.854Z,15.78
2019-05-25T06:20:07.140Z,16.16
2019-05-25T06:22:36.181Z,16.23
2019-05-25T06:25:05.879Z,16.32
2019-05-25T06:27:34.874Z,17.26
2019-05-25T06:30:04.566Z,17.72
2019-05-25T06:32:34.284Z,18.47
2019-05-25T06:35:03.306Z,19.04
2019-05-25T06:37:32.321Z,19.48
2019-05-25T06:40:01.400Z,20.26
2019-05-25T06:42:30.328Z,20.05
2019-05-25T06:44:59.200Z,20.05
2019-05-25T06:47:28.122Z,19.83
2019-05-25T06:49:57.143Z,20.00
2019-05-25T06:52:26.055Z,19.75
2019-05-25T06:54:54.872Z,20.38
2019-05-25T06:57:23.745Z,20.83
2019-05-25T06:59:52.812Z,20.94
2019-05-25T07:02:22.706Z,20.88
2019-05-25T07:04:51.583Z,20.53
2019-05-25T07:07:20.619Z,20.50
2019-05-25T07:09:49.520Z,20.30
2019-05-25T07:12:18.459Z,20.63
2019-05-25T07:14:47.398Z,20.63
2019-05-25T07:17:16.370Z,20.29
2019-05-25T07:19:45.273Z,19.89
2019-05-25T07:22:14.233Z,20.53
2019-05-25T07:24:43.206Z,20.53
2019-05-25T07:27:12.763Z,21.17
2019-05-25T07:29:41.684Z,21.04
2019-05-25T07:32:10.746Z,21.07
2019-05-25T07:34:39.738Z,21.77
2019-05-25T07:37:08.703Z,21.72
2019-05-25T07:39:37.535Z,21.12
2019-05-25T07:42:08.325Z,20.98
2019-05-25T07:44:37.250Z,20.96
2019-05-25T07:47:06.046Z,20.37
2019-05-25T07:49:34.830Z,20.56
2019-05-25T07:52:04.023Z,20.80
2019-05-25T07:54:32.823Z,21.05
2019-05-25T07:57:01.857Z,21.56
2019-05-25T07:59:30.671Z,22.01
2019-05-25T08:01:59.639Z,22.51
2019-05-25T08:04:28.473Z,22.41
2019-05-25T08:06:57.488Z,22.41
2019-05-25T08:09:26.446Z,21.57
2019-05-25T08:11:55.465Z,20.74
2019-05-25T08:14:24.378Z,20.55
2019-05-25T08:16:53.383Z,20.55
2019-05-25T08:19:22.366Z,20.59
2019-05-25T08:21:51.325Z,20.71
2019-05-25T08:24:20.340Z,20.90
2019-05-25T08:26:49.342Z,21.79
2019-05-25T08:29:18.321Z,21.95
2019-05-25T08:31:47.306Z,21.45
2019-05-25T08:34:16.242Z,21.34
2019-05-25T08:36:45.243Z,21.64
2019-05-25T08:39:14.108Z,21.57
2019-05-25T08:41:45.526Z,21.45
2019-05-25T08:44:14.093Z,21.10
2019-05-25T08:46:43.013Z,21.19
2019-05-25T08:49:11.904Z,21.43
2019-05-25T08:51:40.730Z,21.51
2019-05-25T08:54:09.593Z,21.16
2019-05-25T08:56:38.493Z,21.24
2019-05-25T08:59:07.474Z,21.02
2019-05-25T09:01:36.400Z,21.51
2019-05-25T09:04:05.473Z,21.53
2019-05-25T09:06:34.442Z,21.35
2019-05-25T09:09:03.853Z,21.18
2019-05-25T09:11:32.797Z,21.12
2019-05-25T09:14:01.586Z,21.13
2019-05-25T09:16:30.682Z,21.10
2019-05-25T09:18:59.558Z,21.09
2019-05-25T09:21:28.987Z,20.94
2019-05-25T09:23:57.902Z,20.85
2019-05-25T09:26:26.794Z,20.64
2019-05-25T09:29:03.928Z,20.89
2019-05-25T09:31:26.222Z,21.24
2019-05-25T09:33:55.123Z,20.77
2019-05-25T09:36:24.062Z,21.07
2019-05-25T09:38:52.951Z,21.35
2019-05-25T09:41:21.983Z,21.79
2019-05-25T09:43:50.888Z,21.58
2019-05-25T09:46:19.838Z,21.29
2019-05-25T09:48:48.730Z,21.13
2019-05-25T09:51:17.743Z,21.35
2019-05-25T09:53:46.634Z,20.86
2019-05-25T09:56:15.559Z,21.20
2019-05-25T09:58:44.579Z,20.96
2019-05-25T10:01:13.565Z,20.91
2019-05-25T10:03:42.570Z,20.88
2019-05-25T10:06:13.329Z,21.18
2019-05-25T10:08:42.077Z,21.06
2019-05-25T10:11:11.568Z,21.16
2019-05-25T10:13:40.597Z,21.22
2019-05-25T10:16:09.441Z,21.42
2019-05-25T10:18:38.351Z,21.48
2019-05-25T10:21:07.272Z,21.17
2019-05-25T10:23:36.371Z,21.32
2019-05-25T10:26:05.294Z,21.31
2019-05-25T10:28:34.303Z,21.50
2019-05-25T10:31:03.147Z,21.72
2019-05-25T10:33:32.641Z,21.77
2019-05-25T10:36:01.774Z,21.34
2019-05-25T10:38:30.699Z,21.51
2019-05-25T10:40:59.472Z,21.35
2019-05-25T10:43:28.422Z,21.39
2019-05-25T10:45:57.284Z,21.54
2019-05-25T10:48:26.324Z,21.61
2019-05-25T10:50:55.214Z,21.71
2019-05-25T10:53:24.038Z,21.61
2019-05-25T10:55:52.932Z,21.30
2019-05-25T10:58:21.919Z,21.74
2019-05-25T11:00:51.217Z,21.82
2019-05-25T11:03:20.478Z,21.69
2019-05-25T11:05:49.535Z,21.87
2019-05-25T11:08:18.599Z,22.00
2019-05-25T11:10:47.567Z,21.60
2019-05-25T11:13:16.600Z,21.80
2019-05-25T11:15:45.545Z,22.14
2019-05-25T11:18:14.592Z,22.46
2019-05-25T11:20:43.578Z,22.59
2019-05-25T11:23:12.498Z,22.81
2019-05-25T17:23:14.287Z,23.18
2019-05-25T17:25:43.350Z,22.62
2019-05-25T17:28:12.352Z,22.31
2019-05-25T17:30:47.128Z,21.90
2019-05-25T17:33:16.471Z,21.55
2019-05-25T17:35:45.755Z,21.41
2019-05-25T17:38:14.745Z,21.48
2019-05-25T17:40:43.752Z,21.25
2019-05-25T17:43:12.640Z,21.03
2019-05-25T17:45:41.539Z,21.24
2019-05-25T17:48:10.515Z,21.53
2019-05-25T17:50:39.475Z,21.77
2019-05-25T17:53:08.450Z,21.86
2019-05-25T17:55:37.450Z,21.67
2019-05-25T17:58:06.611Z,21.35
2019-05-25T18:00:45.446Z,21.25
2019-05-25T18:03:14.673Z,21.17
2019-05-25T18:05:43.699Z,21.04
2019-05-25T18:08:12.704Z,21.02
2019-05-25T18:10:53.007Z,21.02
2019-05-25T18:13:12.456Z,20.93
2019-05-25T18:15:41.331Z,21.05
2019-05-25T18:18:10.332Z,21.42
2019-05-25T18:20:39.333Z,21.59
2019-05-25T18:23:08.424Z,21.69
2019-05-25T18:25:37.331Z,21.56
2019-05-25T18:28:07.381Z,21.44
2019-05-25T18:30:36.626Z,21.48
2019-05-25T18:33:06.204Z,21.18
2019-05-25T18:35:35.453Z,21.02
2019-05-25T18:38:04.391Z,20.84
2019-05-25T18:40:33.430Z,20.66
2019-05-25T18:43:02.518Z,20.52
2019-05-25T18:45:31.612Z,20.36
2019-05-25T18:48:00.725Z,20.38
2019-05-25T18:50:29.675Z,20.27
2019-05-25T18:52:58.564Z,20.22
2019-05-25T18:55:27.488Z,20.26
2019-05-25T18:57:56.348Z,20.24
2019-05-25T19:00:25.594Z,20.24
2019-05-25T19:02:54.469Z,20.05
2019-05-25T19:05:23.673Z,19.90
2019-05-25T19:07:52.725Z,19.82
2019-05-25T19:10:22.278Z,19.69
2019-05-25T19:12:51.203Z,19.65
2019-05-25T19:15:20.528Z,19.56
2019-05-25T19:17:49.548Z,19.46
2019-05-25T19:20:21.238Z,19.43
2019-05-25T19:22:49.889Z,19.39
2019-05-25T19:25:18.921Z,19.30
2019-05-25T19:27:48.344Z,19.14
2019-05-25T19:30:17.338Z,19.01
2019-05-25T19:32:46.194Z,19.08
2019-05-25T19:35:15.282Z,18.95
2019-05-25T19:37:44.166Z,18.92
2019-05-25T19:40:14.790Z,18.85
2019-05-25T19:42:43.723Z,18.86
2019-05-25T19:45:13.830Z,18.85
2019-05-25T19:47:42.727Z,18.70
2019-05-25T19:50:11.925Z,18.68
2019-05-25T19:52:40.887Z,18.69
2019-05-25T19:55:10.325Z,18.84
2019-05-25T19:57:39.319Z,18.80
2019-05-25T20:00:09.244Z,18.66
2019-05-25T20:02:38.351Z,18.57
2019-05-25T20:05:16.217Z,18.48
2019-05-25T20:07:38.610Z,18.46
2019-05-25T20:10:10.499Z,18.46
2019-05-25T20:12:39.462Z,18.50
2019-05-25T20:15:10.436Z,18.51
2019-05-25T20:17:39.431Z,18.57
2019-05-25T20:20:10.406Z,18.55
2019-05-25T20:22:39.420Z,18.47
2019-05-25T20:25:08.379Z,18.31
2019-05-25T20:27:37.418Z,18.48
2019-05-25T20:30:06.844Z,18.49
2019-05-25T20:32:35.828Z,18.49
2019-05-25T20:35:05.182Z,18.39
2019-05-25T20:37:34.228Z,18.36
2019-05-25T20:40:03.436Z,18.33
2019-05-25T20:42:32.346Z,18.32
2019-05-25T20:45:01.285Z,18.35
2019-05-25T20:47:30.289Z,18.35
2019-05-25T20:49:59.524Z,18.30
2019-05-25T20:52:28.697Z,18.33
2019-05-25T20:54:57.643Z,18.31
2019-05-25T20:57:26.644Z,18.33
2019-05-25T20:59:55.749Z,18.27
2019-05-25T21:02:24.713Z,18.26
2019-05-25T21:04:53.660Z,18.37
2019-05-25T21:07:23.062Z,18.21
2019-05-25T21:09:52.213Z,18.12
2019-05-25T21:12:21.378Z,18.11
2019-05-25T21:14:50.369Z,18.12
2019-05-25T21:17:19.433Z,17.94
2019-05-25T21:19:48.674Z,17.95
2019-05-25T21:22:17.767Z,18.07
2019-05-25T21:24:46.733Z,18.17
2019-05-25T21:27:15.679Z,18.10
2019-05-25T21:29:44.609Z,18.01
2019-05-25T21:32:13.772Z,17.99
2019-05-25T21:34:42.576Z,17.84
2019-05-25T21:37:15.780Z,17.86
2019-05-25T21:39:44.593Z,17.79
2019-05-25T21:42:13.414Z,17.91
2019-05-25T21:44:42.351Z,18.00
2019-05-25T21:47:11.244Z,18.03
2019-05-25T21:49:40.176Z,17.99
2019-05-25T21:52:09.112Z,17.78
2019-05-25T21:54:38.110Z,17.77
2019-05-25T21:57:06.915Z,17.67
2019-05-25T21:59:35.881Z,17.59
2019-05-25T22:02:05.176Z,17.39
2019-05-25T22:04:34.075Z,17.29
2019-05-25T22:07:02.975Z,17.15
2019-05-25T22:09:31.771Z,17.19
2019-05-25T22:12:00.752Z,17.10
2019-05-25T22:14:29.677Z,16.98
2019-05-25T22:16:58.705Z,16.89
2019-05-25T22:19:27.674Z,16.82
2019-05-25T22:21:56.817Z,16.49
2019-05-25T22:24:25.938Z,16.49
2019-05-25T22:26:54.836Z,16.42
2019-05-25T22:29:23.952Z,16.32
2019-05-25T22:31:53.027Z,16.36
2019-05-25T22:34:22.047Z,16.30
2019-05-25T22:36:51.012Z,16.14
2019-05-25T22:39:19.983Z,16.03
2019-05-25T22:41:49.069Z,15.92
2019-05-25T22:44:18.036Z,15.89
2019-05-25T22:46:47.232Z,15.77
2019-05-25T22:49:16.569Z,15.69
2019-05-25T22:51:45.575Z,15.60
2019-05-25T22:54:14.603Z,15.59
2019-05-25T22:56:43.421Z,15.54
2019-05-25T22:59:12.878Z,15.48
2019-05-25T23:01:41.934Z,15.49
2019-05-25T23:04:10.885Z,15.56
2019-05-25T23:06:56.102Z,15.51
2019-05-25T23:09:10.826Z,15.41
2019-05-25T23:11:39.944Z,15.35
2019-05-25T23:14:09.966Z,15.25
2019-05-25T23:16:39.114Z,15.21
2019-05-25T23:19:08.322Z,15.16
2019-05-25T23:21:37.627Z,15.26
2019-05-25T23:24:06.926Z,15.29
2019-05-25T23:26:36.222Z,15.42
2019-05-25T23:29:06.310Z,15.41
2019-05-25T23:31:35.335Z,15.28
2019-05-25T23:34:04.398Z,15.21
2019-05-25T23:36:33.911Z,15.13
2019-05-25T23:39:02.911Z,15.07
2019-05-25T23:41:31.798Z,14.88
2019-05-25T23:44:00.708Z,14.70
2019-05-25T23:46:29.643Z,14.68
2019-05-25T23:48:58.668Z,14.62
2019-05-25T23:51:27.621Z,14.54
2019-05-25T23:53:56.617Z,14.46
2019-05-25T23:56:25.492Z,14.29
2019-05-25T23:58:55.942Z,14.15
